Harvey, Louisiana
Current Conditions -  °F | °C
As of 3:55 PM on Monday 22 Dec 2014 (Local Time) from KVSH Reporting Station
Scattered Clouds Scattered Clouds  
Wind Chill: 72°   Ceiling: Unl
Heat Index: 72°   Visibility: 10mi
Dew Point: 64°   Wind: 13mph
Humidity: 78%   Direction: 190°S
Pressure: 29.72"   Gusts: 22mph
Location:  29.91°N, 90.08°W
Report Text: KVSH 222155Z AUTO 19011G19KT 10SM FEW014 FEW023 SCT031 22/18 A2972 RMK AO1
Loading
Personal Weather Stations






























Interactive Weather Map New forecast layout! Learn more

10-Day Weather Forecast

Advertisements
Track Severe Weather on mobile